Time;durP1;ratioP1;P1;durP2;ratioP2;P2;SDS_P1;SDS_P2;PMS_P1;PMS_P2;Temp;Humidity;BMP_temperature;BMP_pressure;BME280_temperature;BME280_humidity;BME280_pressure;Samples;Min_cycle;Max_cycle;Signal;HPM_P1;HPM_P2
2022/03/17 00:00:56;;;;;;;21.10;15.73;;;10.20;99.90;;;;;;4976358;28;20495;-50
2022/03/17 00:03:23;;;;;;;24.60;16.60;;;11.80;99.90;;;;;;4992187;28;20115;-49
2022/03/17 00:05:49;;;;;;;27.17;16.27;;;10.30;99.90;;;;;;4993305;28;20042;-52
2022/03/17 00:08:16;;;;;;;25.65;16.88;;;11.50;99.90;;;;;;4991844;28;20042;-52
2022/03/17 00:10:42;;;;;;;24.48;16.30;;;10.40;99.90;;;;;;4974271;28;20061;-52
2022/03/17 00:13:08;;;;;;;23.25;16.13;;;10.20;99.90;;;;;;4992621;28;20054;-53
2022/03/17 00:15:34;;;;;;;24.08;16.17;;;10.50;99.90;;;;;;4991006;28;20088;-51
2022/03/17 00:18:00;;;;;;;23.45;16.83;;;11.40;99.90;;;;;;4992162;28;20057;-50
2022/03/17 00:20:27;;;;;;;23.80;16.45;;;10.10;99.90;;;;;;4992000;28;20049;-52
2022/03/17 00:22:53;;;;;;;22.33;16.23;;;10.10;99.90;;;;;;4992288;28;20050;-47
2022/03/17 00:25:19;;;;;;;23.02;16.02;;;11.20;99.90;;;;;;4991923;28;20412;-46
2022/03/17 00:27:44;;;;;;;22.70;15.90;;;10.10;99.90;;;;;;4991455;28;20033;-46
2022/03/17 00:30:10;;;;;;;22.52;16.42;;;11.00;99.90;;;;;;4991196;28;20042;-52
2022/03/17 00:32:38;;;;;;;21.80;17.08;;;11.50;99.90;;;;;;4991407;28;20053;-50
2022/03/17 00:37:51;;;;;;;24.20;16.88;;;10.10;99.90;;;;;;4990445;28;20254;-49
2022/03/17 00:40:18;;;;;;;23.90;16.60;;;10.20;99.90;;;;;;4974560;28;20038;-49
2022/03/17 00:42:44;;;;;;;26.27;18.08;;;11.40;99.90;;;;;;4991592;28;20045;-48
2022/03/17 00:45:12;;;;;;;27.70;17.70;;;11.60;99.90;;;;;;4990700;28;20576;-45
2022/03/17 00:47:39;;;;;;;23.25;16.70;;;10.30;99.90;;;;;;4990170;28;20034;-47
2022/03/17 00:50:06;;;;;;;24.67;18.15;;;12.30;99.90;;;;;;4986016;28;20137;-51
2022/03/17 00:52:32;;;;;;;29.20;18.85;;;10.20;99.90;;;;;;4971782;28;20046;-47
2022/03/17 00:54:58;;;;;;;25.73;17.67;;;10.20;99.90;;;;;;4993767;28;20091;-50
2022/03/17 00:57:24;;;;;;;24.35;17.45;;;11.00;99.90;;;;;;4993104;28;20469;-48
2022/03/17 00:59:53;;;;;;;27.45;18.15;;;10.30;99.90;;;;;;4995438;28;20052;-48
2022/03/17 01:02:19;;;;;;;23.98;18.27;;;10.10;99.90;;;;;;4995235;28;20057;-51
2022/03/17 01:04:44;;;;;;;24.73;18.13;;;10.20;99.90;;;;;;4995306;28;20045;-48
2022/03/17 01:07:10;;;;;;;24.02;17.92;;;10.20;99.90;;;;;;4994523;28;20272;-45
2022/03/17 01:09:36;;;;;;;25.70;18.67;;;10.20;99.90;;;;;;4993917;28;20034;-49
2022/03/17 01:12:02;;;;;;;22.52;17.55;;;10.10;99.90;;;;;;4997317;28;20042;-46
2022/03/17 01:14:30;;;;;;;24.02;17.48;;;10.20;99.90;;;;;;4996018;28;20049;-48
2022/03/17 01:16:56;;;;;;;23.63;18.42;;;12.20;99.90;;;;;;4996112;28;20046;-50
2022/03/17 01:19:21;;;;;;;25.98;18.85;;;11.80;99.90;;;;;;4993517;28;20034;-49
2022/03/17 01:21:49;;;;;;;22.17;17.90;;;10.20;99.90;;;;;;4995689;28;20042;-45
2022/03/17 01:24:17;;;;;;;24.90;18.23;;;10.40;99.90;;;;;;4995152;28;20418;-48
2022/03/17 01:26:43;;;;;;;24.08;18.20;;;10.60;99.90;;;;;;4996104;28;20049;-47
2022/03/17 01:29:08;;;;;;;24.50;18.42;;;10.40;99.90;;;;;;4995622;28;20034;-45
2022/03/17 01:31:36;;;;;;;26.55;18.00;;;10.30;99.90;;;;;;4995055;28;20030;-48
2022/03/17 01:34:02;;;;;;;26.95;18.25;;;11.30;99.90;;;;;;4993785;28;20030;-47
2022/03/17 01:36:28;;;;;;;25.20;18.08;;;10.20;99.90;;;;;;4993008;28;20038;-48
2022/03/17 01:38:53;;;;;;;25.23;18.85;;;10.30;99.90;;;;;;4993923;28;20049;-46
2022/03/17 01:41:19;;;;;;;26.65;18.02;;;11.30;99.90;;;;;;4994812;28;20038;-50
2022/03/17 01:43:45;;;;;;;26.33;18.70;;;10.80;99.90;;;;;;4994245;28;20046;-51
2022/03/17 01:46:15;;;;;;;25.52;19.52;;;10.10;99.90;;;;;;4994094;28;20046;-51
2022/03/17 01:48:42;;;;;;;26.60;19.40;;;10.20;99.90;;;;;;4992905;28;20816;-48
2022/03/17 01:51:09;;;;;;;24.42;19.25;;;11.10;99.90;;;;;;4993091;28;21171;-50
2022/03/17 01:53:35;;;;;;;26.75;19.00;;;11.70;99.90;;;;;;4994872;28;20038;-51
2022/03/17 01:56:02;;;;;;;23.75;18.73;;;10.10;99.90;;;;;;4994034;28;20054;-48
2022/03/17 01:58:28;;;;;;;26.65;20.23;;;12.30;99.90;;;;;;4993329;28;20483;-52
2022/03/17 02:00:53;;;;;;;26.45;19.27;;;10.20;99.90;;;;;;4993572;28;20042;-50
2022/03/17 02:03:19;;;;;;;27.65;20.02;;;10.80;99.90;;;;;;4994048;28;20053;-48
2022/03/17 02:05:45;;;;;;;27.33;19.73;;;10.20;99.90;;;;;;4992280;28;20038;-52
2022/03/17 02:08:14;;;;;;;27.70;20.42;;;10.20;99.90;;;;;;4992755;28;20365;-48
2022/03/17 02:13:24;;;;;;;26.33;19.58;;;10.00;99.90;;;;;;4993814;28;20056;-50
2022/03/17 02:15:51;;;;;;;29.23;21.42;;;10.10;99.90;;;;;;4993792;28;20034;-47
2022/03/17 02:18:18;;;;;;;27.65;20.58;;;9.90;99.90;;;;;;4993531;28;20041;-48
2022/03/17 02:20:46;;;;;;;26.55;20.35;;;8.70;99.90;;;;;;4993390;28;20506;-48
2022/03/17 02:26:00;;;;;;;27.67;20.33;;;9.70;99.90;;;;;;4992933;28;20132;-47
2022/03/17 02:28:27;;;;;;;27.65;21.98;;;9.90;99.90;;;;;;4994167;28;20132;-47
2022/03/17 02:30:53;;;;;;;28.33;21.73;;;9.70;99.90;;;;;;4994409;28;20048;-48
2022/03/17 02:33:19;;;;;;;28.05;22.48;;;9.70;99.90;;;;;;4977471;28;20065;-48
2022/03/17 02:35:47;;;;;;;28.35;21.10;;;10.40;99.90;;;;;;4994653;28;20469;-45
2022/03/17 02:38:13;;;;;;;28.10;20.95;;;9.70;99.90;;;;;;4993201;28;20099;-47
2022/03/17 02:40:40;;;;;;;26.98;21.50;;;10.80;99.90;;;;;;4994028;28;20038;-50
2022/03/17 02:43:07;;;;;;;30.75;21.70;;;10.00;99.90;;;;;;4995639;28;20133;-49
2022/03/17 02:45:34;;;;;;;27.13;21.35;;;9.90;99.90;;;;;;4974889;28;20054;-46
2022/03/17 02:48:00;;;;;;;30.80;22.27;;;9.70;99.90;;;;;;4993358;28;20030;-49
2022/03/17 02:50:28;;;;;;;32.70;22.42;;;9.90;99.90;;;;;;4992041;28;20065;-46
2022/03/17 02:52:56;;;;;;;28.52;21.85;;;9.90;99.90;;;;;;4992735;28;20092;-49
2022/03/17 02:55:22;;;;;;;28.40;20.85;;;9.80;99.90;;;;;;4973173;28;20058;-48
2022/03/17 02:57:49;;;;;;;27.20;21.20;;;11.00;99.90;;;;;;4991707;28;20156;-47
2022/03/17 03:00:17;;;;;;;28.27;21.67;;;9.70;99.90;;;;;;4993444;28;20048;-48
2022/03/17 03:02:44;;;;;;;25.30;20.13;;;9.70;99.90;;;;;;4992032;28;20057;-49
2022/03/17 03:05:10;;;;;;;31.45;22.48;;;10.30;99.90;;;;;;4992108;28;20498;-46
2022/03/17 03:07:36;;;;;;;32.50;21.35;;;9.80;99.90;;;;;;4991319;28;20544;-47
2022/03/17 03:10:05;;;;;;;24.70;20.77;;;9.80;99.90;;;;;;4991964;28;20049;-50
2022/03/17 03:12:31;;;;;;;29.23;21.45;;;9.80;99.90;;;;;;4992044;28;20046;-47
2022/03/17 03:14:56;;;;;;;30.23;21.63;;;9.90;99.90;;;;;;4991386;28;20087;-48
2022/03/17 03:17:23;;;;;;;26.90;22.17;;;9.90;99.90;;;;;;4991231;28;20152;-50
2022/03/17 03:19:49;;;;;;;28.33;21.40;;;9.70;99.90;;;;;;4992311;28;20060;-48
2022/03/17 03:22:18;;;;;;;31.10;23.15;;;9.80;99.90;;;;;;4989906;28;20048;-51
2022/03/17 03:24:45;;;;;;;29.85;23.52;;;10.00;99.90;;;;;;4990676;28;20061;-50
2022/03/17 03:27:11;;;;;;;25.67;20.30;;;9.90;99.90;;;;;;4991957;28;20343;-48
2022/03/17 03:29:38;;;;;;;26.77;22.33;;;11.30;99.90;;;;;;4992765;28;20652;-48
2022/03/17 03:32:06;;;;;;;28.52;22.67;;;9.90;99.90;;;;;;4993033;28;20931;-48
2022/03/17 03:34:32;;;;;;;28.02;22.95;;;9.80;99.90;;;;;;4991924;28;20053;-50
2022/03/17 03:39:43;;;;;;;27.33;22.20;;;9.90;99.90;;;;;;4992560;28;20049;-50
2022/03/17 03:42:11;;;;;;;32.33;24.38;;;9.90;99.90;;;;;;4994599;28;20034;-47
2022/03/17 03:44:38;;;;;;;34.38;24.88;;;9.90;99.90;;;;;;4993460;28;20048;-51
2022/03/17 03:47:05;;;;;;;31.55;25.90;;;9.80;99.90;;;;;;4992836;28;20442;-51
2022/03/17 03:49:33;;;;;;;31.38;24.70;;;9.90;99.90;;;;;;4993396;28;20537;-47
2022/03/17 03:51:59;;;;;;;34.92;25.27;;;10.40;99.90;;;;;;4991942;28;20100;-48
2022/03/17 03:54:25;;;;;;;34.60;27.30;;;10.60;99.90;;;;;;4993253;28;20034;-45
2022/03/17 03:56:56;;;;;;;39.00;29.23;;;8.50;99.90;;;;;;4992385;28;20048;-49
2022/03/17 03:59:24;;;;;;;36.08;28.30;;;9.50;99.90;;;;;;4993111;28;20045;-48
2022/03/17 04:01:53;;;;;;;35.03;29.20;;;9.20;99.90;;;;;;4993057;28;20041;-49
2022/03/17 04:04:20;;;;;;;36.60;27.60;;;9.40;99.90;;;;;;4992530;28;20345;-50
2022/03/17 04:06:49;;;;;;;39.33;30.83;;;10.30;99.90;;;;;;4991220;28;20042;-50
2022/03/17 04:09:17;;;;;;;37.75;27.98;;;9.30;99.90;;;;;;4974801;28;20506;-48
2022/03/17 04:11:44;;;;;;;43.08;32.42;;;9.10;99.90;;;;;;4992665;28;20045;-50
2022/03/17 04:14:11;;;;;;;47.13;35.05;;;10.20;99.90;;;;;;4992696;28;20042;-49
2022/03/17 04:16:37;;;;;;;42.47;32.97;;;9.20;99.90;;;;;;4972111;28;20119;-50
2022/03/17 04:19:05;;;;;;;45.55;33.63;;;11.40;99.90;;;;;;4991435;28;20564;-48
2022/03/17 04:21:31;;;;;;;43.80;32.40;;;9.10;99.90;;;;;;4991407;28;20359;-47
2022/03/17 04:23:57;;;;;;;46.67;35.22;;;9.20;99.90;;;;;;4990862;28;20248;-49
2022/03/17 04:26:23;;;;;;;47.20;36.75;;;9.40;99.90;;;;;;4989890;28;20042;-52
2022/03/17 04:28:49;;;;;;;48.90;35.05;;;11.50;99.90;;;;;;4993606;28;20045;-51
2022/03/17 04:31:15;;;;;;;53.38;36.40;;;9.10;99.90;;;;;;4995566;28;20096;-47
2022/03/17 04:33:43;;;;;;;52.85;38.33;;;9.20;99.90;;;;;;4994526;28;20288;-46
2022/03/17 04:36:12;;;;;;;50.75;36.22;;;9.00;99.90;;;;;;4994643;28;20038;-49
2022/03/17 04:38:38;;;;;;;54.53;38.60;;;9.10;99.90;;;;;;4995374;28;20030;-46
2022/03/17 04:41:08;;;;;;;58.95;40.60;;;9.00;99.90;;;;;;4996308;28;20038;-49
2022/03/17 04:43:34;;;;;;;56.33;39.03;;;9.00;99.90;;;;;;4995685;28;20037;-46
2022/03/17 04:46:00;;;;;;;62.97;40.50;;;10.40;99.90;;;;;;4993528;28;21003;-50
2022/03/17 04:48:26;;;;;;;66.63;42.38;;;9.10;99.90;;;;;;4994395;28;20108;-50
2022/03/17 04:50:52;;;;;;;62.38;39.45;;;9.10;99.90;;;;;;4993964;28;20041;-47
2022/03/17 04:53:27;;;;;;;50.33;35.72;;;9.00;99.90;;;;;;4996601;28;20033;-45
2022/03/17 04:56:14;;;;;;;28.40;19.67;;;8.90;99.90;;;;;;4994921;28;20044;-46
2022/03/17 04:58:42;;;;;;;23.42;16.75;;;8.80;99.90;;;;;;4996005;28;20589;-47
2022/03/17 05:01:09;;;;;;;15.10;11.18;;;9.70;99.90;;;;;;4995706;28;20042;-47
2022/03/17 05:03:37;;;;;;;16.60;11.10;;;9.30;99.90;;;;;;4996642;28;20116;-49
2022/03/17 05:06:03;;;;;;;16.45;12.35;;;9.60;99.90;;;;;;4996065;28;20200;-46
2022/03/17 05:08:29;;;;;;;15.65;11.73;;;8.30;99.90;;;;;;4996640;28;20049;-50
2022/03/17 05:10:55;;;;;;;15.02;10.55;;;9.00;99.90;;;;;;4994710;28;20642;-46
2022/03/17 05:13:23;;;;;;;15.65;10.38;;;6.30;99.90;;;;;;4977046;28;20111;-46
2022/03/17 05:15:51;;;;;;;17.65;10.75;;;8.10;99.90;;;;;;4996056;28;20042;-45
2022/03/17 05:18:17;;;;;;;13.80;9.07;;;8.00;99.90;;;;;;4996291;28;20095;-45
2022/03/17 05:20:46;;;;;;;13.68;9.38;;;8.00;99.90;;;;;;4994045;28;20049;-48
2022/03/17 05:23:13;;;;;;;12.77;9.45;;;7.90;99.90;;;;;;4994029;28;20034;-49
2022/03/17 05:25:40;;;;;;;13.63;8.73;;;9.30;99.90;;;;;;4994885;28;20092;-48
2022/03/17 05:28:10;;;;;;;13.05;8.57;;;7.80;99.90;;;;;;4994029;28;20492;-46
2022/03/17 05:30:37;;;;;;;12.45;8.35;;;8.00;99.90;;;;;;4993229;28;20050;-47
2022/03/17 05:33:03;;;;;;;17.80;9.45;;;8.10;99.90;;;;;;4994951;28;20564;-50
2022/03/17 05:35:31;;;;;;;16.30;10.55;;;7.70;99.90;;;;;;4994961;28;20041;-48
2022/03/17 05:37:57;;;;;;;17.38;11.00;;;8.00;99.90;;;;;;4993095;28;20056;-49
2022/03/17 05:40:23;;;;;;;23.48;11.80;;;7.80;99.90;;;;;;4993480;28;21108;-48
2022/03/17 05:42:53;;;;;;;23.15;11.88;;;8.20;99.90;;;;;;4995510;28;20359;-48
2022/03/17 05:45:19;;;;;;;18.55;11.75;;;7.60;99.90;;;;;;4976606;28;20141;-47
2022/03/17 05:47:49;;;;;;;22.20;12.55;;;7.50;99.90;;;;;;4992315;28;20456;-46
2022/03/17 05:50:17;;;;;;;21.50;11.55;;;7.50;99.90;;;;;;4994308;28;20931;-48
2022/03/17 05:52:44;;;;;;;20.73;10.98;;;7.50;99.90;;;;;;4992873;28;20076;-48
2022/03/17 05:55:13;;;;;;;24.77;11.63;;;7.60;99.90;;;;;;4994224;28;20471;-46
2022/03/17 05:57:42;;;;;;;22.25;11.23;;;7.70;99.90;;;;;;4993226;28;20058;-49
2022/03/17 06:00:11;;;;;;;24.30;11.75;;;7.70;99.90;;;;;;4993372;28;20572;-45
2022/03/17 06:02:38;;;;;;;23.90;10.45;;;7.30;99.90;;;;;;4993531;28;20384;-50
2022/03/17 06:05:05;;;;;;;19.08;10.90;;;7.30;99.90;;;;;;4993106;28;20438;-48
2022/03/17 06:07:44;;;;;;;20.17;11.35;;;7.30;99.90;;;;;;4993360;28;20121;-46
2022/03/17 06:10:15;;;;;;;22.90;10.38;;;7.50;99.90;;;;;;4992645;28;20096;-48
2022/03/17 06:12:43;;;;;;;23.85;8.18;;;8.10;99.90;;;;;;4993626;28;20131;-46
2022/03/17 06:15:09;;;;;;;22.02;6.15;;;7.50;99.90;;;;;;4993440;28;20076;-47
2022/03/17 06:17:43;;;;;;;13.65;5.22;;;7.30;99.90;;;;;;4995233;28;20045;-47
2022/03/17 06:20:12;;;;;;;13.15;5.70;;;7.30;99.90;;;;;;4994874;28;20125;-45
2022/03/17 06:22:39;;;;;;;15.88;4.97;;;7.20;99.90;;;;;;4994914;28;20049;-46
2022/03/17 06:25:06;;;;;;;18.65;5.30;;;7.30;99.90;;;;;;4994023;28;20046;-46
2022/03/17 06:27:31;;;;;;;14.57;4.50;;;7.30;99.90;;;;;;4993633;28;20038;-46
2022/03/17 06:29:57;;;;;;;16.88;4.47;;;7.30;99.90;;;;;;4993721;28;20092;-47
2022/03/17 06:32:24;;;;;;;18.48;5.10;;;7.20;99.90;;;;;;4993846;28;20117;-45
2022/03/17 06:34:50;;;;;;;18.40;5.43;;;7.40;99.90;;;;;;4975891;28;20462;-48
2022/03/17 06:37:15;;;;;;;15.73;5.50;;;7.30;99.90;;;;;;4994016;28;20049;-46
2022/03/17 06:39:41;;;;;;;13.88;4.40;;;7.10;99.90;;;;;;4991493;28;20046;-46
2022/03/17 06:42:09;;;;;;;17.95;5.40;;;7.20;99.90;;;;;;4992487;28;20049;-44
2022/03/17 06:44:34;;;;;;;13.77;3.30;;;7.20;99.90;;;;;;4994440;28;20080;-45
2022/03/17 06:47:00;;;;;;;17.83;3.65;;;;;;;;;;4991658;28;20034;-45
2022/03/17 06:49:26;;;;;;;8.68;2.28;;;7.40;99.90;;;;;;4993393;28;20045;-46
2022/03/17 06:51:52;;;;;;;12.98;2.85;;;7.40;99.90;;;;;;4991675;28;20061;-46
2022/03/17 06:54:19;;;;;;;10.70;2.88;;;7.30;99.90;;;;;;4993720;28;20045;-49
2022/03/17 06:56:45;;;;;;;11.15;2.65;;;7.30;99.90;;;;;;4992927;28;20046;-46
2022/03/17 06:59:10;;;;;;;11.82;2.58;;;7.30;99.90;;;;;;4991646;28;20045;-48
2022/03/17 07:01:40;;;;;;;13.60;3.53;;;7.20;99.90;;;;;;4993569;28;20098;-46
2022/03/17 07:04:05;;;;;;;13.70;3.03;;;7.30;99.90;;;;;;4991919;28;20498;-50
2022/03/17 07:06:31;;;;;;;10.13;2.30;;;7.20;99.90;;;;;;4992626;28;20057;-47
2022/03/17 07:08:57;;;;;;;13.05;2.83;;;7.30;99.90;;;;;;4992365;28;20462;-46
2022/03/17 07:11:26;;;;;;;12.27;2.13;;;7.20;99.90;;;;;;4991397;28;20528;-46
2022/03/17 07:13:51;;;;;;;14.27;2.65;;;7.10;99.90;;;;;;4991428;28;20052;-45
2022/03/17 07:16:18;;;;;;;14.00;2.72;;;6.90;99.90;;;;;;4992983;28;20242;-45
2022/03/17 07:18:44;;;;;;;13.80;2.45;;;7.20;99.90;;;;;;4992208;28;20046;-49
2022/03/17 07:21:10;;;;;;;14.43;2.63;;;7.00;99.90;;;;;;4991595;28;20146;-46
2022/03/17 07:23:36;;;;;;;15.70;3.47;;;7.10;99.90;;;;;;4992955;28;20156;-46
2022/03/17 07:26:08;;;;;;;11.90;2.22;;;7.10;99.90;;;;;;4991463;28;20565;-48
2022/03/17 07:28:33;;;;;;;;;;;7.20;99.90;;;;;;4992280;28;20719;-48
2022/03/17 07:30:59;;;;;;;16.13;2.28;;;7.30;99.90;;;;;;4992091;28;19964;-50
2022/03/17 07:33:25;;;;;;;11.98;2.25;;;7.20;99.90;;;;;;4991529;28;20042;-45
2022/03/17 07:35:50;;;;;;;11.23;2.20;;;7.20;99.90;;;;;;4993320;28;20052;-46
2022/03/17 07:38:16;;;;;;;16.75;2.78;;;7.30;99.90;;;;;;4993423;28;20038;-47
2022/03/17 07:40:43;;;;;;;16.70;2.05;;;7.20;99.90;;;;;;4993350;28;20513;-46
2022/03/17 07:43:10;;;;;;;14.50;2.05;;;7.30;99.90;;;;;;4993766;28;20120;-50
2022/03/17 07:45:36;;;;;;;13.20;2.70;;;7.20;99.90;;;;;;4993202;28;20065;-46
2022/03/17 07:48:05;;;;;;;9.13;1.80;;;7.40;99.90;;;;;;4994114;28;20124;-51
2022/03/17 07:50:33;;;;;;;15.93;3.40;;;7.30;99.90;;;;;;4974799;28;20048;-48
2022/03/17 07:52:59;;;;;;;10.80;2.33;;;7.30;99.90;;;;;;4992421;28;20038;-52
2022/03/17 07:55:25;;;;;;;13.27;1.85;;;7.40;99.90;;;;;;4992908;28;20104;-49
2022/03/17 07:57:52;;;;;;;13.60;2.00;;;7.40;99.90;;;;;;4991924;28;20064;-48
2022/03/17 08:00:17;;;;;;;24.70;3.33;;;7.30;99.90;;;;;;4990306;28;20129;-48
2022/03/17 08:02:43;;;;;;;12.63;2.17;;;7.30;99.90;;;;;;4992056;28;20045;-49
2022/03/17 08:05:12;;;;;;;16.08;3.28;;;7.30;99.90;;;;;;4992503;28;20042;-50
2022/03/17 08:07:38;;;;;;;15.02;2.60;;;7.30;99.90;;;;;;4992145;28;20327;-51
2022/03/17 08:10:05;;;;;;;18.55;2.42;;;7.50;99.90;;;;;;4992259;28;20045;-46
2022/03/17 08:12:31;;;;;;;17.33;3.25;;;7.40;99.90;;;;;;4991925;28;20045;-51
2022/03/17 08:15:01;;;;;;;12.98;2.67;;;7.40;99.90;;;;;;4993059;28;20048;-51
2022/03/17 08:17:28;;;;;;;18.92;3.33;;;7.50;99.90;;;;;;4991272;28;20136;-49
2022/03/17 08:19:53;;;;;;;14.43;2.22;;;7.60;99.90;;;;;;4991344;28;20045;-48
2022/03/17 08:22:21;;;;;;;11.32;2.42;;;7.50;99.90;;;;;;4992485;28;21038;-49
2022/03/17 08:24:47;;;;;;;14.32;2.13;;;7.60;99.90;;;;;;4973329;28;20500;-51
2022/03/17 08:27:12;;;;;;;15.45;1.80;;;7.60;99.90;;;;;;4991904;28;20042;-50
2022/03/17 08:29:42;;;;;;;11.27;2.17;;;7.70;99.90;;;;;;4991511;28;20354;-48
2022/03/17 08:32:09;;;;;;;14.32;1.67;;;8.90;99.90;;;;;;4973974;28;20564;-49
2022/03/17 08:34:35;;;;;;;13.43;1.98;;;7.40;99.90;;;;;;4990514;28;20049;-51
2022/03/17 08:37:03;;;;;;;10.27;1.85;;;7.50;99.90;;;;;;4991972;28;20448;-45
2022/03/17 08:39:29;;;;;;;15.85;2.55;;;7.40;99.90;;;;;;4990165;28;20096;-47
2022/03/17 08:41:56;;;;;;;12.77;2.15;;;7.30;99.90;;;;;;4990026;28;20038;-49
2022/03/17 08:44:23;;;;;;;11.93;2.30;;;7.30;99.90;;;;;;4991765;28;20791;-51
2022/03/17 08:49:35;;;;;;;23.27;2.50;;;7.10;99.90;;;;;;4991197;28;20053;-49
2022/03/17 08:52:01;;;;;;;16.52;2.55;;;7.30;99.90;;;;;;4992041;28;20045;-49
2022/03/17 08:54:29;;;;;;;14.80;2.88;;;7.50;99.90;;;;;;4993018;28;20052;-47
2022/03/17 08:57:01;;;;;;;17.65;2.97;;;7.50;99.90;;;;;;4993349;28;20049;-50
2022/03/17 08:59:31;;;;;;;16.75;2.20;;;7.50;99.90;;;;;;4974970;28;20129;-50
2022/03/17 09:02:01;;;;;;;11.00;1.80;;;7.70;99.90;;;;;;4993333;28;20038;-47
2022/03/17 09:04:28;;;;;;;11.07;2.47;;;7.70;99.90;;;;;;4992351;28;20044;-48
2022/03/17 09:06:59;;;;;;;11.60;2.88;;;7.60;99.90;;;;;;4974420;28;20042;-49
2022/03/17 09:09:31;;;;;;;12.68;2.00;;;7.50;99.90;;;;;;4973248;28;20116;-49
2022/03/17 09:11:57;;;;;;;17.65;3.50;;;7.50;99.90;;;;;;4990316;28;20050;-52
2022/03/17 09:14:24;;;;;;;14.05;2.42;;;7.40;99.90;;;;;;4992084;28;20034;-52
2022/03/17 09:16:49;;;;;;;22.20;4.10;;;7.50;99.90;;;;;;4993670;28;20112;-49
2022/03/17 09:19:15;;;;;;;15.15;3.67;;;7.60;99.90;;;;;;4994610;28;20046;-50
2022/03/17 09:21:41;;;;;;;19.35;3.53;;;7.70;99.90;;;;;;4994863;28;20038;-49
2022/03/17 09:24:09;;;;;;;14.57;2.45;;;7.80;99.90;;;;;;4994755;28;20030;-50
2022/03/17 09:26:34;;;;;;;12.85;2.58;;;8.40;99.90;;;;;;4994636;28;20514;-48
2022/03/17 09:29:00;;;;;;;15.60;2.35;;;8.50;99.90;;;;;;4977208;28;20061;-50
2022/03/17 09:31:26;;;;;;;14.80;3.13;;;9.20;99.90;;;;;;4994198;28;20694;-47
2022/03/17 09:33:52;;;;;;;14.95;2.30;;;9.60;99.90;;;;;;4993748;28;20456;-48
2022/03/17 09:36:18;;;;;;;16.65;2.50;;;10.20;99.90;;;;;;4995325;28;20037;-46
2022/03/17 09:39:39;;;;;;;19.48;2.58;;;11.00;99.90;;;;;;4993765;28;20383;-48
2022/03/17 09:41:33;;;;;;;12.82;2.30;;;9.80;99.90;;;;;;4993199;28;20509;-49
2022/03/17 09:43:59;;;;;;;12.95;2.03;;;9.40;99.90;;;;;;4994892;28;20520;-49
2022/03/17 09:46:27;;;;;;;12.77;2.40;;;9.30;99.90;;;;;;4995204;28;20119;-50
2022/03/17 09:48:56;;;;;;;14.98;2.00;;;9.30;99.90;;;;;;4993311;28;20108;-48
2022/03/17 09:51:26;;;;;;;13.63;2.20;;;9.30;99.90;;;;;;4993623;28;20124;-48
2022/03/17 09:53:53;;;;;;;16.35;2.58;;;9.50;99.90;;;;;;4993873;28;20041;-48
2022/03/17 09:56:24;;;;;;;13.00;3.17;;;9.50;99.90;;;;;;4993849;28;20045;-51
2022/03/17 09:58:55;;;;;;;15.10;1.88;;;10.80;99.90;;;;;;4993712;28;20085;-53
2022/03/17 10:01:22;;;;;;;13.45;2.50;;;10.00;99.90;;;;;;4995452;28;20077;-49
2022/03/17 10:03:51;;;;;;;11.20;2.08;;;10.10;99.90;;;;;;4993835;28;20396;-47
2022/03/17 10:06:17;;;;;;;12.20;1.90;;;10.50;99.90;;;;;;4995635;28;20479;-50
2022/03/17 10:08:45;;;;;;;13.63;2.20;;;11.00;99.90;;;;;;4994425;28;20503;-51
2022/03/17 10:11:16;;;;;;;10.52;1.98;;;11.60;99.90;;;;;;4994557;28;20053;-49
2022/03/17 10:13:46;;;;;;;14.07;2.20;;;11.30;99.90;;;;;;4977304;28;20048;-49
2022/03/17 10:16:18;;;;;;;12.60;1.80;;;10.80;99.90;;;;;;4978369;28;20108;-51
2022/03/17 10:18:46;;;;;;;11.07;1.80;;;11.00;99.90;;;;;;4976171;28;20073;-51
2022/03/17 10:21:13;;;;;;;9.65;2.60;;;11.10;99.90;;;;;;4993990;28;20454;-51
2022/03/17 10:24:02;;;;;;;12.68;2.08;;;11.00;99.90;;;;;;4993505;28;20131;-48
2022/03/17 10:26:37;;;;;;;11.73;2.10;;;10.80;99.90;;;;;;4994039;28;20038;-51
2022/03/17 10:29:19;;;;;;;12.88;2.90;;;10.60;99.90;;;;;;4991928;28;20073;-47
2022/03/17 10:31:55;;;;;;;13.68;1.92;;;10.50;99.90;;;;;;4993656;28;20056;-54
2022/03/17 10:34:27;;;;;;;10.98;1.88;;;10.70;99.90;;;;;;4992662;28;20777;-49
2022/03/17 10:37:07;;;;;;;12.98;2.30;;;10.60;99.90;;;;;;4993618;28;20042;-51
2022/03/17 10:39:47;;;;;;;11.48;1.42;;;10.70;99.90;;;;;;4958591;28;20065;-50
2022/03/17 10:42:39;;;;;;;14.82;2.67;;;10.90;99.90;;;;;;4974386;28;20057;-52
2022/03/17 10:45:07;;;;;;;18.20;2.42;;;12.20;99.90;;;;;;4988104;28;20041;-51
2022/03/17 10:47:36;;;;;;;15.80;2.10;;;10.50;99.90;;;;;;4992949;28;20053;-52
2022/03/17 10:50:07;;;;;;;18.70;2.22;;;10.30;99.90;;;;;;4991104;28;20041;-51
2022/03/17 10:53:00;;;;;;;14.63;2.30;;;10.50;99.90;;;;;;4991594;28;20380;-52
2022/03/17 10:55:28;;;;;;;6.88;1.50;;;8.30;99.90;;;;;;4993904;28;20786;-47
2022/03/17 10:57:58;;;;;;;13.23;2.35;;;11.20;99.90;;;;;;4991994;28;20596;-53
2022/03/17 11:00:25;;;;;;;13.77;2.33;;;10.40;99.90;;;;;;4993539;28;20056;-52
2022/03/17 11:02:53;;;;;;;14.23;2.55;;;12.40;99.90;;;;;;4991793;28;20041;-51
2022/03/17 11:05:19;;;;;;;12.45;2.28;;;10.60;99.90;;;;;;4992996;28;20185;-52
2022/03/17 11:07:46;;;;;;;17.55;2.97;;;13.10;99.90;;;;;;4992949;28;20034;-48
2022/03/17 11:10:15;;;;;;;9.32;1.85;;;11.20;99.90;;;;;;4992767;28;20042;-51
2022/03/17 11:12:43;;;;;;;11.40;2.15;;;11.20;99.90;;;;;;4993281;28;20045;-51
2022/03/17 11:15:09;;;;;;;13.63;4.07;;;12.20;99.90;;;;;;4993634;28;20078;-51
2022/03/17 11:17:42;;;;;;;13.20;2.42;;;11.40;99.90;;;;;;4993304;28;20518;-49
2022/03/17 11:20:11;;;;;;;15.18;2.50;;;11.50;99.90;;;;;;4975724;28;20037;-51
2022/03/17 11:22:39;;;;;;;13.65;2.35;;;11.30;99.90;;;;;;4992481;28;20069;-53
2022/03/17 11:25:31;;;;;;;13.93;2.47;;;11.40;99.90;;;;;;4992133;28;20041;-56
2022/03/17 11:27:59;;;;;;;15.32;2.70;;;11.70;99.90;;;;;;4992266;28;20046;-57
2022/03/17 11:30:46;;;;;;;12.43;2.25;;;12.30;99.90;;;;;;4991463;28;20049;-57
2022/03/17 11:33:28;;;;;;;11.70;1.98;;;11.70;99.90;;;;;;4992450;28;20102;-56
2022/03/17 11:36:09;;;;;;;17.73;2.50;;;11.90;99.90;;;;;;4993134;28;20722;-57
2022/03/17 11:38:36;;;;;;;11.20;1.77;;;12.10;99.90;;;;;;4990435;28;20532;-57
2022/03/17 11:41:13;;;;;;;12.10;2.25;;;12.40;99.90;;;;;;4991517;28;20053;-56
2022/03/17 11:43:58;;;;;;;12.68;2.72;;;12.20;99.90;;;;;;4990159;28;20258;-56
2022/03/17 11:46:54;;;;;;;14.57;2.15;;;12.10;99.90;;;;;;4989770;28;20754;-56
2022/03/17 11:49:23;;;;;;;11.93;2.50;;;12.10;99.90;;;;;;4912681;29;20563;-56
2022/03/17 11:51:55;;;;;;;12.45;2.25;;;12.30;99.90;;;;;;4909523;29;20444;-57
2022/03/17 11:54:20;;;;;;;17.75;2.75;;;12.00;99.90;;;;;;4911989;29;20056;-57
2022/03/17 11:56:47;;;;;;;12.93;2.03;;;11.70;99.90;;;;;;4911414;29;20133;-58
2022/03/17 11:59:16;;;;;;;14.23;4.00;;;11.90;99.90;;;;;;4911690;29;20112;-57
2022/03/17 12:01:43;;;;;;;17.67;3.03;;;11.70;99.90;;;;;;4910474;29;20106;-57
2022/03/17 12:04:22;;;;;;;16.52;2.20;;;11.70;99.90;;;;;;4911265;29;21436;-57
2022/03/17 12:07:05;;;;;;;14.90;2.08;;;11.70;99.90;;;;;;4911360;29;20057;-57
2022/03/17 12:09:32;;;;;;;11.75;2.30;;;11.90;99.90;;;;;;4912254;29;20895;-57
2022/03/17 12:11:58;;;;;;;15.90;3.08;;;12.90;99.90;;;;;;4910905;29;20834;-57
2022/03/17 12:14:25;;;;;;;9.95;1.83;;;11.70;99.90;;;;;;4913035;29;20044;-56
2022/03/17 12:16:51;;;;;;;13.75;2.80;;;13.10;99.90;;;;;;4896478;29;20525;-57
2022/03/17 12:19:51;;;;;;;10.48;1.73;;;11.70;99.90;;;;;;4911878;29;20055;-56
2022/03/17 12:22:20;;;;;;;15.63;2.25;;;13.00;99.90;;;;;;4854332;29;20538;-56
2022/03/17 12:24:53;;;;;;;8.50;1.60;;;12.10;99.90;;;;;;4856190;29;20148;-57
2022/03/17 12:27:35;;;;;;;13.10;2.00;;;12.10;99.90;;;;;;4911072;29;20115;-57
2022/03/17 12:30:15;;;;;;;11.98;2.15;;;11.60;99.90;;;;;;4910206;29;20071;-56
2022/03/17 12:33:06;;;;;;;15.95;2.35;;;12.10;99.90;;;;;;4910866;29;20456;-57
2022/03/17 12:35:35;;;;;;;10.50;2.10;;;12.80;99.90;;;;;;4911454;29;20047;-57
2022/03/17 12:38:07;;;;;;;12.77;1.90;;;11.30;99.90;;;;;;4912661;29;20063;-56
2022/03/17 12:40:44;;;;;;;11.70;1.90;;;11.30;99.90;;;;;;4911991;29;20871;-56
2022/03/17 12:43:18;;;;;;;13.90;1.80;;;11.20;99.90;;;;;;4912747;29;20048;-57
2022/03/17 12:45:49;;;;;;;11.45;1.85;;;12.60;99.90;;;;;;4896692;29;20058;-57
2022/03/17 12:48:16;;;;;;;10.60;1.92;;;11.30;99.90;;;;;;4912697;29;20047;-57
2022/03/17 12:50:42;;;;;;;12.18;2.53;;;12.60;99.90;;;;;;4915979;29;20059;-57
2022/03/17 12:53:09;;;;;;;11.35;1.65;;;11.40;99.90;;;;;;4914514;29;20548;-56
2022/03/17 12:55:36;;;;;;;10.55;1.80;;;11.20;99.90;;;;;;4897901;29;20544;-57
2022/03/17 12:58:02;;;;;;;14.13;2.00;;;12.40;99.90;;;;;;4936584;28;20066;-57